Time;durP1;ratioP1;P1;durP2;ratioP2;P2;SDS_P1;SDS_P2;PMS_P1;PMS_P2;Temp;Humidity;BMP_temperature;BMP_pressure;BME280_temperature;BME280_humidity;BME280_pressure;Samples;Min_cycle;Max_cycle;Signal;HPM_P1;HPM_P2
2022/10/15 00:01:25;;;;;;;48.08;17.30;;;9.20;99.90;;;;;;5036959;28;20045;-75
2022/10/15 00:03:52;;;;;;;47.65;18.33;;;10.60;99.90;;;;;;5020104;28;20060;-74
2022/10/15 00:06:20;;;;;;;52.72;17.13;;;9.30;99.90;;;;;;5037314;28;20042;-75
2022/10/15 00:08:48;;;;;;;55.58;17.33;;;10.10;99.90;;;;;;5018809;28;20369;-73
2022/10/15 00:11:21;;;;;;;42.35;15.90;;;9.20;99.90;;;;;;5020384;28;20049;-74
2022/10/15 00:13:51;;;;;;;49.10;16.50;;;9.90;99.90;;;;;;5037322;28;20468;-75
2022/10/15 00:16:23;;;;;;;46.38;16.40;;;10.00;99.90;;;;;;5019047;28;20050;-72
2022/10/15 00:18:51;;;;;;;50.85;16.50;;;9.20;99.90;;;;;;5037346;28;20056;-75
2022/10/15 00:21:19;;;;;;;;;;;10.50;99.90;;;;;;5037013;28;20368;-73
2022/10/15 00:23:48;;;;;;;50.40;15.95;;;9.20;99.90;;;;;;5019932;28;20339;-74
2022/10/15 00:26:21;;;;;;;41.10;16.58;;;9.10;99.90;;;;;;5037328;28;20037;-76
2022/10/15 00:28:51;;;;;;;44.17;16.10;;;9.60;99.90;;;;;;5036036;28;20041;-76
2022/10/15 00:31:23;;;;;;;51.45;17.40;;;9.20;99.90;;;;;;5036844;28;20376;-75
2022/10/15 00:33:52;;;;;;;54.85;17.02;;;9.10;99.90;;;;;;5037265;28;20056;-74
2022/10/15 00:36:24;;;;;;;40.30;16.00;;;9.10;99.90;;;;;;5018373;28;20045;-76
2022/10/15 00:38:53;;;;;;;51.35;17.83;;;9.10;99.90;;;;;;5019623;28;20049;-74
2022/10/15 00:41:28;;;;;;;53.28;16.02;;;9.00;99.90;;;;;;5018326;28;20056;-74
2022/10/15 00:43:58;;;;;;;56.22;16.10;;;9.00;99.90;;;;;;5019468;28;20053;-76
2022/10/15 00:46:32;;;;;;;46.08;15.35;;;8.90;99.90;;;;;;5036809;28;20490;-74
2022/10/15 00:49:22;;;;;;;42.80;15.35;;;9.00;99.90;;;;;;5035798;28;20050;-76
2022/10/15 00:51:56;;;;;;;43.42;14.73;;;8.80;99.90;;;;;;5030689;28;20049;-76
2022/10/15 00:54:26;;;;;;;41.50;15.10;;;10.70;99.90;;;;;;4986975;28;20049;-74
2022/10/15 00:56:54;;;;;;;44.90;15.40;;;8.70;99.90;;;;;;5036341;28;20368;-74
2022/10/15 00:59:23;;;;;;;;;;;9.10;99.90;;;;;;5018885;28;20057;-76
2022/10/15 01:01:54;;;;;;;39.05;12.60;;;8.60;99.90;;;;;;5034938;28;19921;-75
2022/10/15 01:04:23;;;;;;;40.20;13.10;;;10.30;99.90;;;;;;5036306;28;20049;-74
2022/10/15 01:06:50;;;;;;;37.10;13.63;;;10.10;99.90;;;;;;5018385;28;20465;-77
2022/10/15 01:09:18;;;;;;;44.42;12.55;;;8.40;99.90;;;;;;5017343;28;20045;-76
2022/10/15 01:11:51;;;;;;;42.47;13.73;;;8.50;99.90;;;;;;5036311;28;20057;-75
2022/10/15 01:14:33;;;;;;;36.40;12.88;;;9.90;99.90;;;;;;5027625;28;20380;-76
2022/10/15 01:17:28;;;;;;;43.33;12.88;;;8.40;99.90;;;;;;5054881;28;20387;-76
2022/10/15 01:20:32;;;;;;;35.70;12.13;;;8.30;99.90;;;;;;5055551;28;20056;-78
2022/10/15 01:23:04;;;;;;;35.33;11.88;;;8.30;99.90;;;;;;5053453;28;20055;-75
2022/10/15 01:26:02;;;;;;;37.08;11.95;;;8.40;99.90;;;;;;5055601;28;20044;-77
2022/10/15 01:28:45;;;;;;;37.08;11.98;;;8.20;99.90;;;;;;5052885;28;20041;-76
2022/10/15 01:31:43;;;;;;;29.85;10.45;;;8.20;99.90;;;;;;5055499;28;20045;-76
2022/10/15 01:34:37;;;;;;;29.58;10.68;;;8.10;99.90;;;;;;5055000;28;20049;-74
2022/10/15 01:37:31;;;;;;;33.28;10.38;;;8.10;99.90;;;;;;5038436;28;20045;-75
2022/10/15 01:40:16;;;;;;;39.28;11.13;;;8.10;99.90;;;;;;5052373;28;20045;-74
2022/10/15 01:43:00;;;;;;;38.20;11.85;;;8.00;99.90;;;;;;5053258;28;20049;-73
2022/10/15 01:45:44;;;;;;;32.28;10.73;;;8.00;99.90;;;;;;5054313;28;20049;-75
2022/10/15 01:48:21;;;;;;;36.03;12.07;;;8.00;99.90;;;;;;5053198;28;20041;-74
2022/10/15 01:50:52;;;;;;;34.85;11.52;;;8.00;99.90;;;;;;5055077;28;20049;-75
2022/10/15 01:53:25;;;;;;;30.20;11.60;;;8.00;99.90;;;;;;5054301;28;20045;-73
2022/10/15 01:55:58;;;;;;;35.85;11.43;;;8.80;99.90;;;;;;5053872;28;20041;-74
2022/10/15 01:58:28;;;;;;;37.67;12.95;;;7.90;99.90;;;;;;5053760;28;20049;-77
2022/10/15 02:00:57;;;;;;;34.90;11.68;;;8.30;99.90;;;;;;5053364;28;20049;-75
2022/10/15 02:03:26;;;;;;;39.47;12.20;;;7.90;99.90;;;;;;5052777;28;20049;-75
2022/10/15 02:06:04;;;;;;;37.33;11.27;;;7.70;99.90;;;;;;5037638;28;20049;-74
2022/10/15 02:08:43;;;;;;;31.55;11.80;;;7.80;99.90;;;;;;5052450;28;20045;-76
2022/10/15 02:11:16;;;;;;;29.20;11.43;;;7.80;99.90;;;;;;5054906;28;20045;-73
2022/10/15 02:13:53;;;;;;;36.75;10.98;;;7.70;99.90;;;;;;5052841;28;20371;-75
2022/10/15 02:16:34;;;;;;;27.35;9.85;;;7.70;99.90;;;;;;5033711;28;20054;-76
2022/10/15 02:19:13;;;;;;;32.47;10.93;;;7.70;99.90;;;;;;5034629;28;20060;-74
2022/10/15 02:21:46;;;;;;;31.15;11.13;;;7.60;99.90;;;;;;5015836;28;20053;-76
2022/10/15 02:24:27;;;;;;;36.63;11.43;;;9.50;99.90;;;;;;5034859;28;20456;-75
2022/10/15 02:26:57;;;;;;;40.35;12.48;;;7.60;99.90;;;;;;5001575;28;20053;-76
2022/10/15 02:29:27;;;;;;;37.75;12.50;;;7.70;99.90;;;;;;5016520;28;20048;-75
2022/10/15 02:31:57;;;;;;;44.33;13.23;;;9.10;99.90;;;;;;5034939;28;20041;-74
2022/10/15 02:34:29;;;;;;;38.47;11.63;;;8.70;99.90;;;;;;5017460;28;20041;-75
2022/10/15 02:37:02;;;;;;;43.72;12.38;;;7.80;99.90;;;;;;5017751;28;20492;-77
2022/10/15 02:39:30;;;;;;;47.80;11.80;;;7.60;99.90;;;;;;5034981;28;20041;-74
2022/10/15 02:41:59;;;;;;;51.85;13.07;;;9.30;99.90;;;;;;5016455;28;20464;-76
2022/10/15 02:44:27;;;;;;;39.28;12.13;;;9.80;99.90;;;;;;5017332;28;20049;-77
2022/10/15 02:46:57;;;;;;;43.10;12.70;;;9.50;99.90;;;;;;5000928;28;20492;-74
2022/10/15 02:49:25;;;;;;;47.63;12.95;;;7.50;99.90;;;;;;5016348;28;20042;-76
2022/10/15 02:51:53;;;;;;;44.00;12.10;;;7.50;99.90;;;;;;5017388;28;20056;-75
2022/10/15 02:54:21;;;;;;;42.50;11.68;;;9.50;99.90;;;;;;5017585;28;20045;-73
2022/10/15 02:56:48;;;;;;;51.13;12.10;;;7.40;99.90;;;;;;4999658;28;20049;-74
2022/10/15 02:59:19;;;;;;;46.78;12.77;;;9.10;99.90;;;;;;5017142;28;20045;-74
2022/10/15 03:01:48;;;;;;;51.00;12.80;;;7.50;99.90;;;;;;5033374;28;20396;-75
2022/10/15 03:04:16;;;;;;;50.83;12.45;;;8.00;99.90;;;;;;4985485;28;20049;-75
2022/10/15 03:06:44;;;;;;;53.00;12.55;;;7.80;99.90;;;;;;5017368;28;20050;-75
2022/10/15 03:09:12;;;;;;;58.00;12.73;;;7.40;99.90;;;;;;5016112;28;20045;-75
2022/10/15 03:11:40;;;;;;;48.22;12.98;;;7.40;99.90;;;;;;5017095;28;20121;-75
2022/10/15 03:14:07;;;;;;;51.83;14.02;;;7.40;99.90;;;;;;5034945;28;20416;-74
2022/10/15 03:16:35;;;;;;;54.72;12.48;;;7.40;99.90;;;;;;4999705;28;20053;-74
2022/10/15 03:19:02;;;;;;;46.60;12.13;;;9.20;99.90;;;;;;5017022;28;20380;-74
2022/10/15 03:21:30;;;;;;;40.30;12.02;;;7.40;99.90;;;;;;5016161;28;20054;-74
2022/10/15 03:24:05;;;;;;;44.13;11.95;;;9.40;99.90;;;;;;5016954;28;20049;-73
2022/10/15 03:26:33;;;;;;;47.90;11.55;;;7.40;99.90;;;;;;5017466;28;20049;-73
2022/10/15 03:29:00;;;;;;;52.42;12.70;;;9.10;99.90;;;;;;5033153;28;20486;-74
2022/10/15 03:31:34;;;;;;;38.55;11.60;;;9.20;99.90;;;;;;5017240;28;20045;-74
2022/10/15 03:34:03;;;;;;;43.33;12.15;;;8.50;99.90;;;;;;5034516;28;20052;-75
2022/10/15 03:36:31;;;;;;;44.15;12.05;;;7.30;99.90;;;;;;4999461;28;20063;-76
2022/10/15 03:39:00;;;;;;;31.25;10.48;;;7.40;99.90;;;;;;5017021;28;20049;-76
2022/10/15 03:41:27;;;;;;;38.47;12.18;;;7.60;99.90;;;;;;5015661;28;20057;-74
2022/10/15 03:44:00;;;;;;;51.30;13.05;;;8.50;99.90;;;;;;5016883;28;20050;-75
2022/10/15 03:46:29;;;;;;;32.83;11.20;;;8.50;99.90;;;;;;5017109;28;20058;-74
2022/10/15 03:48:59;;;;;;;47.03;11.35;;;7.70;99.90;;;;;;5015729;28;20045;-75
2022/10/15 03:51:27;;;;;;;42.03;12.85;;;7.40;99.90;;;;;;5017301;28;20569;-74
2022/10/15 03:54:04;;;;;;;41.22;13.02;;;8.10;99.90;;;;;;5004557;28;20064;-74
2022/10/15 03:56:37;;;;;;;45.30;14.20;;;7.30;99.90;;;;;;5019327;28;20046;-74
2022/10/15 03:59:23;;;;;;;53.42;15.27;;;9.20;99.90;;;;;;5020550;28;20045;-77
2022/10/15 04:01:57;;;;;;;42.17;15.02;;;7.40;99.90;;;;;;5019036;28;20042;-76
2022/10/15 04:04:25;;;;;;;54.10;14.88;;;7.40;99.90;;;;;;5020353;28;20050;-74
2022/10/15 04:06:53;;;;;;;45.22;14.40;;;9.60;99.90;;;;;;5020239;28;20049;-74
2022/10/15 04:09:20;;;;;;;39.97;13.23;;;7.50;99.90;;;;;;5018996;28;20053;-75
2022/10/15 04:11:48;;;;;;;37.60;15.48;;;7.60;99.90;;;;;;5020300;28;20046;-75
2022/10/15 04:14:19;;;;;;;46.50;15.23;;;9.40;99.90;;;;;;5028170;28;20081;-76
2022/10/15 04:16:46;;;;;;;52.42;14.98;;;7.60;99.90;;;;;;5055207;28;20045;-73
2022/10/15 04:19:18;;;;;;;42.80;13.85;;;5.50;99.90;;;;;;5056588;28;20060;-73
2022/10/15 04:21:56;;;;;;;44.40;14.50;;;7.50;99.90;;;;;;5040277;28;20048;-76
2022/10/15 04:24:30;;;;;;;46.85;15.00;;;9.70;99.90;;;;;;5056210;28;20049;-74
2022/10/15 04:26:58;;;;;;;56.33;15.27;;;7.50;99.90;;;;;;5057160;28;20049;-76
2022/10/15 04:29:25;;;;;;;43.08;14.60;;;9.20;99.90;;;;;;5056014;28;20052;-75
2022/10/15 04:31:53;;;;;;;;;;;7.40;99.90;;;;;;5056725;28;20053;-74
2022/10/15 04:34:21;;;;;;;40.85;13.60;;;7.40;99.90;;;;;;5056086;28;19931;-74
2022/10/15 04:36:49;;;;;;;42.20;14.38;;;7.40;99.90;;;;;;5054803;28;20041;-75
2022/10/15 04:39:20;;;;;;;38.70;12.55;;;7.40;99.90;;;;;;5056076;28;20053;-74
2022/10/15 04:41:48;;;;;;;39.90;13.35;;;7.40;99.90;;;;;;5038338;28;20060;-75
2022/10/15 04:44:26;;;;;;;37.40;13.43;;;9.00;99.90;;;;;;5054948;28;20376;-73
2022/10/15 04:46:57;;;;;;;34.65;12.70;;;8.40;99.90;;;;;;5056128;28;20053;-76
2022/10/15 04:49:43;;;;;;;38.83;13.23;;;7.30;99.90;;;;;;5055340;28;20448;-75
2022/10/15 04:52:29;;;;;;;37.25;11.82;;;7.40;99.90;;;;;;5057063;28;20045;-76
2022/10/15 04:55:03;;;;;;;47.60;13.75;;;7.40;99.90;;;;;;5038286;28;20041;-74
2022/10/15 04:57:31;;;;;;;48.78;12.98;;;7.40;99.90;;;;;;5038904;28;20049;-76
2022/10/15 04:59:58;;;;;;;52.50;13.20;;;7.50;99.90;;;;;;5039276;28;20059;-76
2022/10/15 05:02:32;;;;;;;36.20;11.60;;;7.50;99.90;;;;;;5055063;28;20045;-74
2022/10/15 05:05:18;;;;;;;42.22;11.85;;;7.90;99.90;;;;;;5025325;28;20057;-76
2022/10/15 05:07:59;;;;;;;40.53;11.40;;;7.50;99.90;;;;;;5054278;28;20053;-76
2022/10/15 05:10:29;;;;;;;36.90;11.27;;;9.50;99.90;;;;;;5055471;28;20041;-74
2022/10/15 05:13:02;;;;;;;37.92;11.35;;;9.10;99.90;;;;;;5055311;28;20041;-74
2022/10/15 05:15:33;;;;;;;39.17;11.05;;;9.20;99.90;;;;;;5054133;28;20049;-76
2022/10/15 05:18:03;;;;;;;48.40;12.30;;;8.30;99.90;;;;;;5055431;28;20451;-75
2022/10/15 05:20:40;;;;;;;43.95;13.45;;;7.50;99.90;;;;;;5055384;28;20044;-73
2022/10/15 05:23:13;;;;;;;44.42;14.32;;;7.50;99.90;;;;;;5053911;28;20059;-76
2022/10/15 05:25:45;;;;;;;43.97;15.07;;;7.50;99.90;;;;;;5055449;28;20060;-77
2022/10/15 05:28:22;;;;;;;40.00;14.98;;;9.50;99.90;;;;;;5037527;28;20060;-74
2022/10/15 05:30:49;;;;;;;44.05;14.15;;;7.60;99.90;;;;;;5055085;28;20045;-74
2022/10/15 05:33:17;;;;;;;39.65;12.63;;;7.60;99.90;;;;;;5038153;28;20522;-76
2022/10/15 05:35:44;;;;;;;35.03;12.13;;;7.70;99.90;;;;;;5037518;28;20063;-77
2022/10/15 05:38:14;;;;;;;37.80;12.27;;;8.90;99.90;;;;;;5055156;28;20037;-75
2022/10/15 05:40:48;;;;;;;37.40;12.38;;;7.80;99.90;;;;;;5054851;28;20368;-75
2022/10/15 05:43:22;;;;;;;48.13;12.00;;;8.70;99.90;;;;;;5053711;28;20041;-75
2022/10/15 05:45:53;;;;;;;46.55;13.07;;;9.00;99.90;;;;;;5054826;28;20387;-75
2022/10/15 05:48:22;;;;;;;35.88;13.45;;;7.70;99.90;;;;;;5053648;28;20044;-74
2022/10/15 05:50:50;;;;;;;42.22;13.30;;;7.70;99.90;;;;;;5055166;28;20048;-73
2022/10/15 05:53:23;;;;;;;33.65;11.80;;;9.60;99.90;;;;;;5054857;28;20064;-74
2022/10/15 05:55:55;;;;;;;46.53;12.88;;;8.50;99.90;;;;;;5037560;28;20041;-75
2022/10/15 05:58:27;;;;;;;34.38;13.48;;;7.50;99.90;;;;;;5055187;28;20049;-76
2022/10/15 06:01:03;;;;;;;34.05;13.02;;;7.50;99.90;;;;;;5054687;28;20384;-75
2022/10/15 06:03:32;;;;;;;39.55;12.98;;;9.30;99.90;;;;;;5054909;28;20045;-75
2022/10/15 06:06:00;;;;;;;45.15;13.90;;;8.00;99.90;;;;;;5055270;28;20045;-75
2022/10/15 06:08:30;;;;;;;33.22;12.18;;;7.90;99.90;;;;;;5052931;28;20044;-74
2022/10/15 06:11:02;;;;;;;;;;;7.40;99.90;;;;;;5054545;28;20048;-74
2022/10/15 06:13:36;;;;;;;37.80;12.95;;;7.40;99.90;;;;;;5055449;28;19928;-75
2022/10/15 06:16:04;;;;;;;31.23;12.07;;;7.40;99.90;;;;;;5033852;28;20373;-75
2022/10/15 06:18:32;;;;;;;41.50;12.90;;;7.40;99.90;;;;;;5035129;28;20045;-78
2022/10/15 06:21:00;;;;;;;36.15;12.82;;;7.30;99.90;;;;;;5035136;28;20365;-74
2022/10/15 06:23:28;;;;;;;39.13;14.30;;;9.30;99.90;;;;;;5033737;28;20045;-75
2022/10/15 06:26:01;;;;;;;39.60;14.23;;;8.00;99.90;;;;;;5018226;28;20058;-74
2022/10/15 06:28:29;;;;;;;39.20;14.35;;;7.30;99.90;;;;;;5033590;28;20042;-73
2022/10/15 06:30:58;;;;;;;41.20;14.65;;;7.40;99.90;;;;;;5035234;28;20042;-75
2022/10/15 06:33:30;;;;;;;45.03;15.10;;;9.10;99.90;;;;;;5034291;28;20068;-75
2022/10/15 06:36:12;;;;;;;57.05;16.48;;;7.30;99.90;;;;;;5033615;28;20461;-74
2022/10/15 06:38:43;;;;;;;48.67;16.05;;;9.10;99.90;;;;;;5035110;28;20052;-75
2022/10/15 06:41:10;;;;;;;45.42;15.82;;;9.00;99.90;;;;;;5000207;28;20045;-75
2022/10/15 06:43:38;;;;;;;51.03;16.65;;;8.80;99.90;;;;;;5034642;28;20056;-74
2022/10/15 06:46:06;;;;;;;46.13;16.25;;;7.40;99.90;;;;;;5034768;28;20056;-75
2022/10/15 06:48:34;;;;;;;45.50;17.50;;;7.30;99.90;;;;;;5033630;28;20052;-75
2022/10/15 06:51:02;;;;;;;48.60;20.38;;;8.80;99.90;;;;;;5034968;28;20046;-75
2022/10/15 06:53:30;;;;;;;54.72;20.98;;;7.30;99.90;;;;;;5035141;28;20452;-75
2022/10/15 06:55:59;;;;;;;;;;;8.80;99.90;;;;;;5016754;28;20479;-73
2022/10/15 06:58:26;;;;;;;;;;;7.40;99.90;;;;;;5035126;28;19925;-75
2022/10/15 07:00:59;;;;;;;61.40;19.05;;;7.40;99.90;;;;;;5017386;28;19929;-74
2022/10/15 07:03:27;;;;;;;62.10;20.25;;;7.80;99.90;;;;;;5033442;28;20049;-75
2022/10/15 07:05:55;;;;;;;79.97;25.98;;;7.40;99.90;;;;;;5034822;28;20045;-75
2022/10/15 07:08:24;;;;;;;92.30;29.00;;;7.50;99.90;;;;;;5033025;28;20060;-76
2022/10/15 07:10:52;;;;;;;87.30;31.13;;;7.50;99.90;;;;;;5034604;28;20046;-74
2022/10/15 07:13:21;;;;;;;83.32;30.55;;;7.70;99.90;;;;;;5016931;28;20376;-75
2022/10/15 07:15:52;;;;;;;69.65;28.33;;;8.00;99.90;;;;;;5045395;28;20053;-74
2022/10/15 07:18:21;;;;;;;81.82;29.45;;;8.20;99.90;;;;;;5034611;28;20046;-75
2022/10/15 07:20:48;;;;;;;66.25;27.40;;;8.80;99.90;;;;;;5033430;28;20056;-74
2022/10/15 07:23:16;;;;;;;68.68;26.65;;;8.80;99.90;;;;;;5033234;28;20057;-75
2022/10/15 07:25:43;;;;;;;62.03;24.58;;;10.90;99.90;;;;;;5033767;28;20056;-74
2022/10/15 07:28:13;;;;;;;58.47;24.13;;;9.40;99.90;;;;;;5037365;28;20050;-74
2022/10/15 07:30:40;;;;;;;56.65;23.73;;;9.80;99.90;;;;;;5037584;28;20053;-74
2022/10/15 07:33:08;;;;;;;50.15;22.30;;;9.80;99.90;;;;;;5037278;28;20049;-74
2022/10/15 07:35:36;;;;;;;47.55;20.35;;;10.60;99.90;;;;;;5036982;28;20053;-75
2022/10/15 07:38:04;;;;;;;49.55;20.50;;;10.10;99.90;;;;;;5036684;28;20053;-76
2022/10/15 07:40:32;;;;;;;45.38;16.92;;;10.20;99.90;;;;;;5037679;28;20048;-75
2022/10/15 07:43:00;;;;;;;48.42;24.48;;;10.30;99.90;;;;;;5036592;28;20057;-74
2022/10/15 07:45:30;;;;;;;39.63;16.33;;;11.40;99.90;;;;;;5036812;28;20518;-74
2022/10/15 07:47:58;;;;;;;40.00;15.45;;;10.50;99.90;;;;;;5036446;28;20353;-74
2022/10/15 07:50:25;;;;;;;29.08;11.63;;;11.50;99.90;;;;;;5036633;28;20045;-74
2022/10/15 07:53:00;;;;;;;27.50;10.95;;;11.40;99.90;;;;;;5036373;28;20046;-75
2022/10/15 07:55:27;;;;;;;30.45;10.38;;;10.80;99.90;;;;;;5036383;28;20451;-75
2022/10/15 07:57:58;;;;;;;29.08;10.00;;;10.90;99.90;;;;;;5037435;28;20046;-73
2022/10/15 08:00:26;;;;;;;20.45;7.32;;;11.90;99.90;;;;;;5037461;28;20065;-74
2022/10/15 08:02:53;;;;;;;23.60;8.40;;;11.00;99.90;;;;;;5035340;28;20061;-74
2022/10/15 08:05:23;;;;;;;27.17;10.57;;;11.10;99.90;;;;;;5020347;28;20057;-74
2022/10/15 08:07:51;;;;;;;18.98;7.22;;;11.20;99.90;;;;;;5035783;28;20049;-74
2022/10/15 08:10:18;;;;;;;21.13;6.88;;;11.30;99.90;;;;;;5037155;28;20045;-75
2022/10/15 08:12:46;;;;;;;22.08;6.38;;;11.30;99.90;;;;;;5036350;28;20396;-75
2022/10/15 08:15:16;;;;;;;24.30;8.07;;;11.30;99.90;;;;;;5050210;28;20049;-75
2022/10/15 08:17:44;;;;;;;19.17;6.78;;;11.40;99.90;;;;;;5057287;28;20045;-75
2022/10/15 08:20:14;;;;;;;21.13;5.80;;;11.40;99.90;;;;;;5057158;28;20048;-74
2022/10/15 08:22:42;;;;;;;16.25;5.18;;;11.40;99.90;;;;;;5056187;28;20046;-75
2022/10/15 08:25:12;;;;;;;17.17;6.85;;;11.50;99.90;;;;;;5057379;28;20049;-75
2022/10/15 08:27:43;;;;;;;15.00;4.82;;;11.50;99.90;;;;;;5056541;28;20074;-74
2022/10/15 08:30:10;;;;;;;14.55;4.60;;;12.70;99.90;;;;;;5056350;28;20052;-74
2022/10/15 08:32:38;;;;;;;15.02;3.95;;;11.70;99.90;;;;;;5057029;28;20044;-74
2022/10/15 08:35:06;;;;;;;14.93;3.58;;;11.60;99.90;;;;;;5056205;28;20044;-75
2022/10/15 08:37:33;;;;;;;11.07;3.03;;;11.60;99.90;;;;;;5056770;28;20041;-74
2022/10/15 08:40:02;;;;;;;12.25;3.00;;;11.60;99.90;;;;;;5055958;28;20045;-74
2022/10/15 08:42:38;;;;;;;10.38;2.42;;;11.60;99.90;;;;;;5053774;28;20045;-75
2022/10/15 08:45:41;;;;;;;10.30;2.40;;;12.00;99.90;;;;;;5056472;28;20379;-74
2022/10/15 08:48:14;;;;;;;7.20;2.35;;;11.70;99.90;;;;;;5051919;28;20097;-75
2022/10/15 08:50:59;;;;;;;10.45;1.90;;;11.70;99.90;;;;;;5055818;28;20056;-76
2022/10/15 08:53:28;;;;;;;8.43;2.28;;;11.70;99.90;;;;;;5056707;28;20049;-75
2022/10/15 08:56:04;;;;;;;7.18;1.70;;;11.70;99.90;;;;;;5055504;28;20049;-74
2022/10/15 08:58:55;;;;;;;9.25;1.90;;;11.70;99.90;;;;;;5056945;28;20041;-75
2022/10/15 09:01:23;;;;;;;6.15;1.65;;;11.80;99.90;;;;;;5055576;28;20045;-74
2022/10/15 09:03:55;;;;;;;16.88;1.77;;;11.80;99.90;;;;;;5056422;28;20462;-75
2022/10/15 09:06:33;;;;;;;8.18;1.52;;;11.80;99.90;;;;;;5056732;28;20049;-75
2022/10/15 09:09:24;;;;;;;6.63;1.52;;;11.90;99.90;;;;;;5055602;28;20056;-75
2022/10/15 09:12:13;;;;;;;8.15;1.35;;;11.90;99.90;;;;;;5056167;28;20049;-74
2022/10/15 09:14:44;;;;;;;9.73;1.10;;;11.90;99.90;;;;;;5045871;28;20038;-74
2022/10/15 09:17:25;;;;;;;12.02;1.60;;;12.00;99.90;;;;;;5036393;28;20052;-74
2022/10/15 09:19:55;;;;;;;5.80;1.08;;;12.00;99.90;;;;;;5018829;28;20037;-73
2022/10/15 09:22:28;;;;;;;6.45;1.42;;;12.00;99.90;;;;;;5034917;28;20045;-73
2022/10/15 09:24:56;;;;;;;5.75;1.20;;;12.00;99.90;;;;;;5018990;28;20053;-73
2022/10/15 09:27:32;;;;;;;4.60;1.20;;;13.00;99.90;;;;;;5036220;28;20042;-74
2022/10/15 09:30:24;;;;;;;7.65;1.50;;;12.10;99.90;;;;;;5034770;28;20113;-74
2022/10/15 09:33:07;;;;;;;8.25;1.33;;;12.20;99.90;;;;;;5018594;28;20494;-72
2022/10/15 09:35:51;;;;;;;7.38;1.85;;;12.30;99.90;;;;;;5018029;28;20057;-74
2022/10/15 09:38:44;;;;;;;7.22;1.38;;;12.40;99.90;;;;;;5035744;28;20045;-73
2022/10/15 09:41:36;;;;;;;8.32;1.45;;;12.40;99.90;;;;;;5034910;28;20053;-73
2022/10/15 09:44:09;;;;;;;6.78;1.30;;;12.50;99.90;;;;;;5035728;28;20049;-73
2022/10/15 09:46:51;;;;;;;8.35;1.33;;;12.60;99.90;;;;;;5035674;28;20487;-75
2022/10/15 09:49:27;;;;;;;10.65;1.55;;;12.60;99.90;;;;;;5033890;28;20128;-75
2022/10/15 09:52:02;;;;;;;7.35;1.40;;;12.70;99.90;;;;;;5035823;28;20045;-74
2022/10/15 09:55:02;;;;;;;8.27;1.70;;;12.80;99.90;;;;;;5017623;28;20060;-75
2022/10/15 09:57:31;;;;;;;8.15;1.60;;;12.80;99.90;;;;;;5035580;28;20049;-73
2022/10/15 10:00:01;;;;;;;8.38;1.42;;;12.90;99.90;;;;;;5035258;28;20057;-75
2022/10/15 10:02:38;;;;;;;4.50;1.20;;;12.90;99.90;;;;;;5034377;28;20060;-75
2022/10/15 10:05:29;;;;;;;9.50;1.60;;;13.00;99.90;;;;;;5018449;28;20060;-73
2022/10/15 10:08:09;;;;;;;10.15;1.48;;;13.10;99.90;;;;;;5034264;28;20041;-75
2022/10/15 10:10:37;;;;;;;8.18;1.70;;;13.20;99.90;;;;;;5035065;28;20046;-73
2022/10/15 10:13:27;;;;;;;10.15;1.42;;;13.30;99.90;;;;;;5035457;28;20053;-73
2022/10/15 10:16:05;;;;;;;9.13;1.40;;;13.80;99.90;;;;;;5052026;28;20056;-75
2022/10/15 10:18:33;;;;;;;7.85;1.60;;;13.40;99.90;;;;;;5054123;28;20041;-75
2022/10/15 10:21:04;;;;;;;10.90;1.60;;;13.50;99.90;;;;;;5055022;28;20475;-72
2022/10/15 10:23:38;;;;;;;13.32;1.73;;;13.60;99.90;;;;;;5054899;28;20052;-75
2022/10/15 10:26:09;;;;;;;12.23;1.77;;;13.70;99.90;;;;;;5054904;28;20052;-74
2022/10/15 10:28:54;;;;;;;5.43;1.40;;;13.80;99.90;;;;;;5050556;28;20049;-76
2022/10/15 10:31:32;;;;;;;11.57;1.60;;;13.90;99.90;;;;;;5054538;28;20045;-75
2022/10/15 10:34:01;;;;;;;10.52;1.42;;;14.00;99.90;;;;;;5053720;28;20048;-74
2022/10/15 10:36:35;;;;;;;13.70;1.65;;;14.10;99.90;;;;;;5053649;28;20049;-71
2022/10/15 10:39:14;;;;;;;11.07;1.50;;;14.20;99.90;;;;;;5038015;28;20038;-74
2022/10/15 10:42:00;;;;;;;8.02;1.55;;;14.20;99.90;;;;;;5033590;28;20054;-74
2022/10/15 10:44:29;;;;;;;9.73;1.58;;;15.50;99.90;;;;;;5034693;28;20052;-75
2022/10/15 10:47:26;;;;;;;8.25;1.45;;;14.50;99.90;;;;;;5034714;28;20049;-74
2022/10/15 10:49:56;;;;;;;10.30;1.65;;;14.50;99.90;;;;;;5030501;28;20072;-74
2022/10/15 10:52:33;;;;;;;8.60;1.55;;;14.60;99.90;;;;;;5035108;28;20372;-74
2022/10/15 10:55:15;;;;;;;8.77;1.42;;;14.70;99.90;;;;;;5033389;28;20045;-74
2022/10/15 10:57:47;;;;;;;6.93;1.38;;;14.90;99.90;;;;;;5033916;28;20072;-73
2022/10/15 11:00:23;;;;;;;8.40;1.45;;;15.10;99.90;;;;;;5033834;28;20057;-73
2022/10/15 11:02:51;;;;;;;11.93;1.30;;;15.30;99.90;;;;;;5035849;28;20049;-74
2022/10/15 11:05:25;;;;;;;9.32;1.42;;;15.50;99.90;;;;;;5038242;28;20053;-74
2022/10/15 11:08:14;;;;;;;10.88;1.50;;;15.70;99.90;;;;;;5037636;28;20049;-76
2022/10/15 11:11:03;;;;;;;10.30;1.20;;;15.80;99.90;;;;;;5038403;28;20056;-74
2022/10/15 11:14:06;;;;;;;9.25;1.27;;;16.00;99.90;;;;;;5039030;28;20052;-74
2022/10/15 11:16:47;;;;;;;8.38;1.50;;;16.10;99.90;;;;;;5037521;28;20049;-76
2022/10/15 11:19:29;;;;;;;11.90;1.73;;;16.30;99.90;;;;;;5037448;28;20045;-73
2022/10/15 11:22:45;;;;;;;7.68;1.35;;;16.50;99.90;;;;;;5037239;28;20049;-73
2022/10/15 11:25:22;;;;;;;8.73;1.35;;;16.80;99.90;;;;;;5038217;28;20053;-74
2022/10/15 11:28:14;;;;;;;12.00;1.33;;;16.90;99.90;;;;;;5036706;28;20057;-74
2022/10/15 11:30:49;;;;;;;10.45;1.70;;;17.00;99.90;;;;;;5038506;28;20050;-76
2022/10/15 11:33:32;;;;;;;13.82;1.58;;;17.00;99.90;;;;;;5049569;28;20060;-77
2022/10/15 11:36:31;;;;;;;10.52;1.50;;;17.10;99.90;;;;;;5021088;28;20053;-74
2022/10/15 11:39:40;;;;;;;4.78;1.15;;;17.00;99.90;;;;;;5048454;28;20045;-72
2022/10/15 11:42:24;;;;;;;7.93;1.48;;;16.90;99.90;;;;;;5023896;28;20053;-73
2022/10/15 11:45:38;;;;;;;14.13;1.80;;;16.80;99.90;;;;;;5070522;28;20040;-76
2022/10/15 11:48:54;;;;;;;8.13;1.48;;;16.80;99.90;;;;;;5052381;28;20045;-76
2022/10/15 11:51:37;;;;;;;7.20;1.63;;;16.90;99.90;;;;;;5050537;28;20371;-76
2022/10/15 11:54:30;;;;;;;11.20;1.77;;;16.90;99.90;;;;;;5057868;28;20060;-74
2022/10/15 11:57:01;;;;;;;9.10;1.55;;;16.90;99.90;;;;;;5056777;28;20045;-77
2022/10/15 11:59:40;;;;;;;9.77;1.80;;;16.80;99.90;;;;;;5058085;28;20371;-75
2022/10/15 12:02:27;;;;;;;11.43;1.70;;;16.70;99.90;;;;;;5056679;28;20459;-76
2022/10/15 12:05:03;;;;;;;8.68;1.60;;;16.70;99.90;;;;;;5057737;28;20049;-75
2022/10/15 12:07:41;;;;;;;10.23;1.85;;;16.60;99.90;;;;;;5057214;28;20052;-76
2022/10/15 12:10:22;;;;;;;7.38;1.70;;;16.50;99.90;;;;;;5038546;28;20052;-74
2022/10/15 12:13:04;;;;;;;7.43;1.70;;;16.40;99.90;;;;;;5048778;28;20361;-73
2022/10/15 12:15:45;;;;;;;11.27;1.90;;;16.30;99.90;;;;;;5036269;28;20460;-74
2022/10/15 12:18:29;;;;;;;9.30;1.55;;;16.20;99.90;;;;;;5037596;28;20375;-74
2022/10/15 12:20:57;;;;;;;9.35;1.50;;;16.20;99.90;;;;;;5037512;28;20041;-73
2022/10/15 12:23:40;;;;;;;6.72;1.60;;;16.20;99.90;;;;;;5035238;28;20495;-72
2022/10/15 12:26:23;;;;;;;7.53;1.40;;;16.20;99.90;;;;;;5037105;28;20053;-72
2022/10/15 12:28:54;;;;;;;7.40;1.40;;;16.30;99.90;;;;;;5035928;28;20049;-74
2022/10/15 12:32:02;;;;;;;8.98;1.50;;;16.30;99.90;;;;;;5037010;28;20049;-72
2022/10/15 12:34:39;;;;;;;8.20;1.55;;;16.30;99.90;;;;;;4975468;28;20057;-74
2022/10/15 12:37:16;;;;;;;7.97;1.50;;;16.20;99.90;;;;;;5026485;28;20480;-73
2022/10/15 12:39:45;;;;;;;12.25;1.48;;;16.20;99.90;;;;;;5037065;28;20045;-73
2022/10/15 12:42:29;;;;;;;7.97;1.50;;;16.10;99.90;;;;;;5050588;28;20053;-73
2022/10/15 12:45:01;;;;;;;7.45;1.25;;;16.00;99.90;;;;;;5036574;28;20056;-72
2022/10/15 12:47:48;;;;;;;9.98;1.27;;;16.00;99.90;;;;;;5052840;28;20395;-73
2022/10/15 12:50:18;;;;;;;10.70;1.73;;;16.10;99.90;;;;;;5036275;28;20060;-72
2022/10/15 12:52:56;;;;;;;10.70;1.50;;;16.10;99.90;;;;;;5036127;28;20057;-73
2022/10/15 12:55:34;;;;;;;9.63;1.70;;;16.20;99.90;;;;;;5034829;28;20041;-73
2022/10/15 12:58:24;;;;;;;8.77;1.40;;;16.30;99.90;;;;;;5045765;28;20111;-73
2022/10/15 13:00:52;;;;;;;9.57;1.77;;;16.40;99.90;;;;;;5056498;28;20056;-74
2022/10/15 13:03:23;;;;;;;9.63;1.45;;;16.50;99.90;;;;;;5054370;28;20045;-75
2022/10/15 13:05:54;;;;;;;18.83;2.25;;;16.00;99.90;;;;;;5056735;28;20486;-74
2022/10/15 13:08:41;;;;;;;9.27;1.65;;;16.60;99.90;;;;;;5039941;28;20053;-74
2022/10/15 13:11:27;;;;;;;7.57;1.60;;;16.60;99.90;;;;;;5055523;28;20377;-74
2022/10/15 13:14:07;;;;;;;9.70;2.22;;;16.60;99.90;;;;;;5052884;28;20054;-74
2022/10/15 13:16:35;;;;;;;9.60;1.60;;;16.50;99.90;;;;;;5035236;28;20045;-72
2022/10/15 13:19:03;;;;;;;7.15;1.50;;;16.50;99.90;;;;;;5019222;28;20046;-74